TimeEST,TemperatureF,Dew PointF,Humidity,Sea Level PressureIn,VisibilityMPH,Wind Direction,Wind SpeedMPH,Gust SpeedMPH,PrecipitationIn,Events,Conditions,WindDirDegrees,DateUTC
12:52 AM,23.0,21.0,92,30.20,9.0,WSW,3.5,-,N/A,,Mostly Cloudy,240,2014-02-09 05:52:00
1:52 AM,25.0,21.9,88,30.19,9.0,Calm,Calm,-,N/A,,Overcast,0,2014-02-09 06:52:00
2:52 AM,26.1,21.9,84,30.21,9.0,Calm,Calm,-,N/A,,Overcast,0,2014-02-09 07:52:00
3:52 AM,27.0,21.0,78,30.19,8.0,Calm,Calm,-,N/A,,Overcast,0,2014-02-09 08:52:00
4:52 AM,26.1,21.9,84,30.19,8.0,Calm,Calm,-,N/A,,Overcast,0,2014-02-09 09:52:00
5:52 AM,27.0,21.0,78,30.19,7.0,Calm,Calm,-,N/A,,Overcast,0,2014-02-09 10:52:00
6:52 AM,27.0,19.9,75,30.18,9.0,Calm,Calm,-,N/A,,Overcast,0,2014-02-09 11:52:00
7:52 AM,27.0,19.0,72,30.19,8.0,Calm,Calm,-,N/A,,Overcast,0,2014-02-09 12:52:00
8:52 AM,27.0,19.0,72,30.21,9.0,Calm,Calm,-,N/A,,Overcast,0,2014-02-09 13:52:00
9:52 AM,28.0,18.0,66,30.17,8.0,SE,5.8,-,N/A,,Overcast,140,2014-02-09 14:52:00
10:52 AM,30.0,18.0,61,30.14,9.0,SE,8.1,-,N/A,,Overcast,140,2014-02-09 15:52:00
11:52 AM,30.9,18.0,59,30.13,10.0,South,6.9,-,N/A,,Overcast,170,2014-02-09 16:52:00
12:52 PM,30.9,19.9,64,30.09,9.0,SSE,6.9,-,N/A,,Overcast,160,2014-02-09 17:52:00
1:52 PM,32.0,21.0,64,30.03,9.0,SSE,10.4,17.3,N/A,,Overcast,150,2014-02-09 18:52:00
2:50 PM,32.0,21.2,64,29.99,10.0,South,8.1,18.4,N/A,,Overcast,170,2014-02-09 19:50:00
2:52 PM,32.0,21.9,66,30.00,10.0,SSE,10.4,18.4,N/A,,Overcast,150,2014-02-09 19:52:00
3:52 PM,30.9,24.1,76,30.01,8.0,SSE,5.8,-,0.00,Snow,Light Snow,160,2014-02-09 20:52:00
4:05 PM,30.2,24.8,80,30.00,1.5,South,6.9,-,0.00,Snow,Light Snow,180,2014-02-09 21:05:00
4:47 PM,30.2,24.8,80,29.99,3.0,SSE,6.9,-,0.00,,Overcast,160,2014-02-09 21:47:00
4:52 PM,30.9,25.0,79,30.00,3.0,SSE,6.9,-,0.00,,Overcast,160,2014-02-09 21:52:00
5:52 PM,30.9,25.0,79,30.00,3.0,South,5.8,-,N/A,,Overcast,170,2014-02-09 22:52:00
6:52 PM,30.9,26.1,82,30.02,6.0,SW,5.8,-,0.00,Snow,Light Snow,230,2014-02-09 23:52:00
7:52 PM,30.9,26.1,82,30.03,8.0,Calm,Calm,-,0.00,,Overcast,0,2014-02-10 00:52:00
8:52 PM,28.9,25.0,85,30.06,8.0,SW,6.9,-,N/A,,Mostly Cloudy,230,2014-02-10 01:52:00
9:52 PM,28.0,26.1,92,30.06,7.0,Variable,4.6,-,N/A,,Mostly Cloudy,0,2014-02-10 02:52:00
10:52 PM,28.0,25.0,88,30.06,7.0,Variable,5.8,-,N/A,,Mostly Cloudy,0,2014-02-10 03:52:00
11:52 PM,30.9,23.0,72,30.06,10.0,NNW,9.2,-,N/A,,Clear,340,2014-02-10 04:52:00